createdAt,value
2022-12-19T00:01:35.288Z,-4.98
2022-12-19T00:04:07.690Z,-4.91
2022-12-19T00:06:36.106Z,-5.04
2022-12-19T00:09:03.414Z,-4.98
2022-12-19T00:11:30.457Z,-4.79
2022-12-19T00:13:58.019Z,-4.81
2022-12-19T00:16:26.840Z,-4.82
2022-12-19T00:18:55.198Z,-4.78
2022-12-19T00:21:24.021Z,-4.87
2022-12-19T00:23:51.417Z,-4.81
2022-12-19T00:26:19.051Z,-4.75
2022-12-19T00:28:49.648Z,-4.74
2022-12-19T00:31:17.472Z,-4.76
2022-12-19T00:33:46.439Z,-4.77
2022-12-19T00:36:21.776Z,-4.72
2022-12-19T00:38:51.135Z,-4.63
2022-12-19T00:41:34.755Z,-4.70
2022-12-19T00:44:06.153Z,-4.72
2022-12-19T00:46:34.595Z,-4.76
2022-12-19T00:49:01.297Z,-4.73
2022-12-19T00:51:32.153Z,-4.66
2022-12-19T00:53:59.162Z,-4.57
2022-12-19T00:56:31.434Z,-4.66
2022-12-19T00:59:00.086Z,-4.62
2022-12-19T01:01:30.797Z,-4.55
2022-12-19T01:04:27.149Z,-4.47
2022-12-19T01:06:45.238Z,-4.43
2022-12-19T01:09:12.869Z,-4.50
2022-12-19T01:11:58.010Z,-4.41
2022-12-19T01:14:24.685Z,-4.43
2022-12-19T01:16:51.871Z,-4.47
2022-12-19T01:19:19.214Z,-4.38
2022-12-19T01:21:45.729Z,-4.36
2022-12-19T01:24:12.682Z,-4.33
2022-12-19T01:26:40.206Z,-4.30
2022-12-19T01:29:06.751Z,-4.24
2022-12-19T01:31:33.622Z,-4.27
2022-12-19T01:34:02.936Z,-4.26
2022-12-19T01:36:29.584Z,-4.23
2022-12-19T01:38:57.093Z,-4.22
2022-12-19T01:41:23.999Z,-4.16
2022-12-19T01:44:04.990Z,-4.17
2022-12-19T01:46:38.801Z,-4.15
2022-12-19T01:49:06.611Z,-4.07
2022-12-19T01:51:40.525Z,-4.13
2022-12-19T01:54:10.439Z,-4.22
2022-12-19T01:56:40.721Z,-4.10
2022-12-19T01:59:14.627Z,-4.07
2022-12-19T02:01:51.510Z,-4.11
2022-12-19T02:04:21.958Z,-4.17
2022-12-19T02:06:48.985Z,-4.20
2022-12-19T02:09:15.787Z,-4.06
2022-12-19T02:11:42.485Z,-4.03
2022-12-19T02:14:09.073Z,-4.16
2022-12-19T02:16:54.168Z,-4.27
2022-12-19T02:19:43.213Z,-4.20
2022-12-19T02:22:23.017Z,-4.22
2022-12-19T02:25:16.849Z,-4.15
2022-12-19T02:28:12.653Z,-4.12
2022-12-19T02:31:00.397Z,-4.22
2022-12-19T02:33:45.401Z,-4.16
2022-12-19T02:36:39.044Z,-4.37
2022-12-19T02:39:14.182Z,-4.37
2022-12-19T02:41:46.087Z,-4.30
2022-12-19T02:44:22.502Z,-4.36
2022-12-19T02:46:49.959Z,-4.40
2022-12-19T02:49:26.186Z,-4.35
2022-12-19T02:51:57.458Z,-4.35
2022-12-19T02:54:24.129Z,-4.32
2022-12-19T02:57:09.877Z,-4.24
2022-12-19T02:59:39.446Z,-4.19
2022-12-19T03:02:26.009Z,-4.21
2022-12-19T03:04:56.373Z,-4.32
2022-12-19T03:07:49.400Z,-4.25
2022-12-19T03:10:41.249Z,-4.18
2022-12-19T03:13:26.479Z,-4.31
2022-12-19T03:15:53.531Z,-4.33
2022-12-19T03:18:20.850Z,-4.27
2022-12-19T03:20:53.181Z,-4.17
2022-12-19T03:23:20.115Z,-4.14
2022-12-19T03:25:50.287Z,-4.21
2022-12-19T03:28:23.224Z,-4.19
2022-12-19T03:30:50.076Z,-4.15
2022-12-19T03:33:17.420Z,-4.16
2022-12-19T03:35:45.266Z,-4.04
2022-12-19T03:38:13.211Z,-4.03
2022-12-19T03:40:43.108Z,-4.09
2022-12-19T03:43:11.571Z,-4.09
2022-12-19T03:45:50.187Z,-4.24
2022-12-19T03:48:37.699Z,-4.31
2022-12-19T03:51:28.325Z,-4.06
2022-12-19T03:54:00.230Z,-4.11
2022-12-19T03:56:39.012Z,-4.12
2022-12-19T03:59:16.067Z,-4.13
2022-12-19T04:01:43.705Z,-4.11
2022-12-19T04:04:10.830Z,-4.12
2022-12-19T04:06:39.494Z,-4.00
2022-12-19T04:09:07.617Z,-4.08
2022-12-19T04:11:39.089Z,-4.13
2022-12-19T04:14:09.232Z,-4.13
2022-12-19T04:16:44.550Z,-4.13
2022-12-19T04:19:20.503Z,-4.02
2022-12-19T04:21:57.720Z,-4.10
2022-12-19T04:24:27.252Z,-3.95
2022-12-19T04:26:54.697Z,-4.08
2022-12-19T04:29:21.939Z,-4.01
2022-12-19T04:31:48.955Z,-4.00
2022-12-19T04:34:17.836Z,-4.04
2022-12-19T04:36:44.506Z,-4.08
2022-12-19T04:39:11.117Z,-4.13
2022-12-19T04:41:37.725Z,-4.17
2022-12-19T04:44:04.458Z,-4.11
2022-12-19T04:46:31.075Z,-4.19
2022-12-19T04:48:57.587Z,-4.15
2022-12-19T04:51:24.238Z,-4.25
2022-12-19T04:53:50.744Z,-4.37
2022-12-19T04:56:17.293Z,-4.27
2022-12-19T04:58:43.920Z,-4.12
2022-12-19T05:01:10.937Z,-4.15
2022-12-19T05:03:37.594Z,-4.17
2022-12-19T05:06:06.168Z,-4.12
2022-12-19T05:08:33.221Z,-4.11
2022-12-19T05:11:01.163Z,-4.16
2022-12-19T05:13:27.922Z,-4.07
2022-12-19T05:15:58.652Z,-4.15
2022-12-19T05:18:25.499Z,-4.03
2022-12-19T05:20:52.406Z,-3.98
2022-12-19T05:23:19.575Z,-4.02
2022-12-19T05:25:46.355Z,-4.00
2022-12-19T05:28:13.873Z,-4.03
2022-12-19T05:30:40.643Z,-4.00
2022-12-19T05:33:07.168Z,-3.93
2022-12-19T05:35:34.544Z,-3.99
2022-12-19T05:38:01.190Z,-3.95
2022-12-19T05:40:27.926Z,-3.95
2022-12-19T05:42:54.802Z,-3.87
2022-12-19T05:45:21.791Z,-3.76
2022-12-19T05:47:48.335Z,-3.73
2022-12-19T05:50:16.316Z,-3.69
2022-12-19T05:52:50.586Z,-3.93
2022-12-19T05:55:17.992Z,-3.90
2022-12-19T05:57:44.655Z,-3.78
2022-12-19T06:00:12.339Z,-3.59
2022-12-19T06:02:42.161Z,-3.66
2022-12-19T06:05:09.305Z,-3.64
2022-12-19T06:07:36.904Z,-3.69
2022-12-19T06:10:04.106Z,-3.56
2022-12-19T06:12:30.623Z,-3.50
2022-12-19T06:14:57.227Z,-3.57
2022-12-19T06:17:23.868Z,-3.53
2022-12-19T06:19:50.421Z,-3.50
2022-12-19T06:22:17.143Z,-3.51
2022-12-19T06:24:43.724Z,-3.40
2022-12-19T06:27:32.774Z,-3.54
2022-12-19T06:30:21.594Z,-3.47
2022-12-19T06:32:57.114Z,-3.38
2022-12-19T06:35:31.313Z,-3.55
2022-12-19T06:38:01.145Z,-3.42
2022-12-19T06:40:46.464Z,-3.34
2022-12-19T06:43:13.073Z,-3.37
2022-12-19T06:45:39.640Z,-3.37
2022-12-19T06:48:06.279Z,-3.43
2022-12-19T06:50:32.810Z,-3.36
2022-12-19T06:53:00.002Z,-3.38
2022-12-19T06:55:27.626Z,-3.21
2022-12-19T06:57:54.179Z,-3.08
2022-12-19T07:00:21.857Z,-3.04
2022-12-19T07:02:50.349Z,-3.01
2022-12-19T07:05:17.056Z,-2.91
2022-12-19T07:07:43.638Z,-2.86
2022-12-19T07:10:10.469Z,-3.06
2022-12-19T07:12:37.063Z,-3.14
2022-12-19T07:15:03.956Z,-2.89
2022-12-19T07:17:30.566Z,-2.88
2022-12-19T07:19:58.386Z,-2.90
2022-12-19T07:22:26.760Z,-2.90
2022-12-19T07:24:54.583Z,-2.86
2022-12-19T07:27:22.825Z,-2.92
2022-12-19T07:29:49.369Z,-2.77
2022-12-19T07:32:15.933Z,-2.72
2022-12-19T07:34:42.453Z,-2.69
2022-12-19T07:37:09.025Z,-2.69
2022-12-19T07:39:35.561Z,-2.67
2022-12-19T07:42:02.106Z,-2.73
2022-12-19T07:44:36.918Z,-2.69
2022-12-19T07:47:03.644Z,-2.60
2022-12-19T07:49:30.339Z,-2.72
2022-12-19T07:51:56.892Z,-2.63
2022-12-19T07:54:23.410Z,-2.56
2022-12-19T07:56:50.043Z,-2.56
2022-12-19T07:59:16.849Z,-2.35
2022-12-19T08:01:43.650Z,-2.25
2022-12-19T08:04:10.283Z,-2.45
2022-12-19T08:06:41.163Z,-2.27
2022-12-19T08:09:08.135Z,-2.38
2022-12-19T08:11:34.721Z,-2.40
2022-12-19T08:14:01.582Z,-2.35
2022-12-19T08:16:28.301Z,-2.16
2022-12-19T08:18:55.698Z,-2.11
2022-12-19T08:21:23.201Z,-2.03
2022-12-19T08:23:51.635Z,-2.07
2022-12-19T08:26:24.907Z,-2.02
2022-12-19T08:28:53.298Z,-1.96
2022-12-19T08:31:22.465Z,-1.95
2022-12-19T08:33:49.259Z,-1.94
2022-12-19T08:36:18.690Z,-1.80
2022-12-19T08:38:45.541Z,-1.76
2022-12-19T08:41:12.120Z,-1.70
2022-12-19T08:43:38.931Z,-1.79
2022-12-19T08:46:06.227Z,-1.71
2022-12-19T08:48:33.632Z,-1.93
2022-12-19T08:51:02.931Z,-1.89
2022-12-19T08:53:31.131Z,-1.75
2022-12-19T08:55:59.423Z,-1.75
2022-12-19T08:58:27.119Z,-1.76
2022-12-19T09:00:57.535Z,-1.76
2022-12-19T09:03:25.809Z,-1.65
2022-12-19T09:06:07.924Z,-1.64
2022-12-19T09:08:36.421Z,-1.55
2022-12-19T09:11:12.541Z,-1.46
2022-12-19T09:13:40.188Z,-1.38
2022-12-19T09:16:11.667Z,-1.56
2022-12-19T09:18:40.696Z,-1.36
2022-12-19T09:21:11.427Z,-1.27
2022-12-19T09:23:37.944Z,-1.19
2022-12-19T09:26:07.773Z,-1.31
2022-12-19T09:28:35.386Z,-1.29
2022-12-19T09:31:04.828Z,-1.24
2022-12-19T09:33:36.660Z,-1.22
2022-12-19T09:36:09.878Z,-1.07
2022-12-19T09:38:38.121Z,-0.96
2022-12-19T09:41:16.145Z,-0.79
2022-12-19T09:44:11.865Z,-0.85
2022-12-19T09:46:51.515Z,-0.77
2022-12-19T09:49:29.185Z,-0.84
2022-12-19T09:52:15.826Z,-0.71
2022-12-19T09:54:54.804Z,-0.46
2022-12-19T09:57:40.216Z,-0.31
2022-12-19T10:00:15.226Z,-0.29
2022-12-19T10:02:56.137Z,-0.21
2022-12-19T10:06:01.158Z,-0.18
2022-12-19T10:09:03.094Z,-0.07
2022-12-19T10:12:43.864Z,-0.08
2022-12-19T10:14:57.186Z,0.07
2022-12-19T10:17:54.690Z,0.21
2022-12-19T10:20:29.990Z,0.25
2022-12-19T10:23:17.866Z,0.34
2022-12-19T10:26:04.571Z,0.20
2022-12-19T10:28:56.802Z,0.29
2022-12-19T10:31:33.163Z,0.36
2022-12-19T10:34:16.246Z,0.36
2022-12-19T10:39:39.984Z,0.53
2022-12-19T10:42:16.028Z,0.44
2022-12-19T10:44:43.777Z,0.63
2022-12-19T10:47:15.585Z,0.70
2022-12-19T10:49:42.241Z,0.65
2022-12-19T10:52:10.243Z,0.55
2022-12-19T10:54:39.846Z,0.59
2022-12-19T10:57:22.720Z,0.75
2022-12-19T11:00:00.195Z,0.98
2022-12-19T11:02:35.420Z,0.95
2022-12-19T11:05:02.955Z,0.97
2022-12-19T11:07:29.472Z,0.58
2022-12-19T11:10:33.255Z,0.83
2022-12-19T11:17:12.445Z,1.10
2022-12-19T11:19:41.508Z,1.09
2022-12-19T11:27:10.532Z,1.14
2022-12-19T11:29:27.491Z,1.08
2022-12-19T11:30:39.084Z,1.11
2022-12-19T11:30:41.250Z,1.07
2022-12-19T11:33:16.942Z,1.11
2022-12-19T11:35:51.965Z,0.96
2022-12-19T11:38:26.260Z,1.08
2022-12-19T11:40:57.815Z,1.03
2022-12-19T11:43:49.786Z,1.11
2022-12-19T11:46:30.911Z,1.05
2022-12-19T11:49:21.367Z,0.79
2022-12-19T11:52:03.063Z,0.82
2022-12-19T11:54:56.757Z,0.78
2022-12-19T11:57:23.490Z,0.88
2022-12-19T11:59:52.282Z,0.83
2022-12-19T12:02:55.221Z,0.89
2022-12-19T12:05:30.701Z,0.64
2022-12-19T12:10:57.792Z,0.76
2022-12-19T12:16:48.406Z,0.92
2022-12-19T12:23:46.593Z,0.84
2022-12-19T12:30:59.741Z,0.96
2022-12-19T12:31:15.365Z,0.97
2022-12-19T12:31:40.918Z,0.98
2022-12-19T12:31:51.874Z,1.04
2022-12-19T12:32:02.060Z,0.91
2022-12-19T12:35:51.510Z,1.00
2022-12-19T12:39:33.630Z,0.85
2022-12-19T12:42:09.651Z,0.88
2022-12-19T12:44:45.540Z,0.75
2022-12-19T12:47:24.577Z,0.79
2022-12-19T12:50:03.709Z,0.85
2022-12-19T12:52:35.385Z,0.72
2022-12-19T12:55:03.340Z,0.95
2022-12-19T12:57:30.089Z,0.93
2022-12-19T13:00:18.252Z,1.03
2022-12-19T13:02:55.006Z,1.01
2022-12-19T13:05:52.758Z,1.09
2022-12-19T13:08:34.960Z,0.97
2022-12-19T13:11:38.743Z,0.99
2022-12-19T13:14:37.032Z,0.99
2022-12-19T13:17:08.191Z,0.71
2022-12-19T13:19:39.666Z,0.86
2022-12-19T13:22:15.490Z,0.77
2022-12-19T13:25:28.048Z,0.73
2022-12-19T13:28:16.377Z,0.55
2022-12-19T13:31:18.732Z,0.65
2022-12-19T13:33:56.412Z,0.89
2022-12-19T13:40:01.316Z,0.92
2022-12-19T13:40:10.907Z,1.04
2022-12-19T13:43:10.353Z,0.93
2022-12-19T13:45:40.581Z,0.95
2022-12-19T13:48:13.690Z,0.98
2022-12-19T13:50:41.225Z,1.09
2022-12-19T13:53:23.155Z,0.92
2022-12-19T13:55:50.092Z,0.96
2022-12-19T13:58:28.879Z,1.07
2022-12-19T14:00:58.931Z,0.83
2022-12-19T14:03:33.875Z,1.07
2022-12-19T14:06:17.479Z,1.04
2022-12-19T14:08:47.111Z,1.15
2022-12-19T14:11:37.103Z,1.15
2022-12-19T14:14:27.446Z,1.24
2022-12-19T14:16:55.930Z,1.25
2022-12-19T14:19:24.972Z,1.21
2022-12-19T14:22:10.194Z,1.08
2022-12-19T14:24:38.819Z,1.03
2022-12-19T14:28:23.963Z,1.19
2022-12-19T14:30:27.237Z,1.26
2022-12-19T14:33:47.342Z,1.35
2022-12-19T14:36:11.336Z,1.40
2022-12-19T14:39:22.661Z,1.37
2022-12-19T14:41:39.824Z,1.29
2022-12-19T14:53:51.271Z,1.24
2022-12-19T14:54:07.891Z,1.40
2022-12-19T14:54:14.082Z,1.27
2022-12-19T14:54:23.584Z,1.27
2022-12-19T14:58:58.209Z,1.33
2022-12-19T15:01:27.763Z,1.37
2022-12-19T15:04:47.763Z,1.39
2022-12-19T15:07:08.583Z,1.66
2022-12-19T15:11:08.238Z,1.43
2022-12-19T15:14:49.677Z,1.57
2022-12-19T15:16:07.346Z,1.60
2022-12-19T15:18:34.049Z,1.59
2022-12-19T15:21:02.641Z,1.66
2022-12-19T15:23:29.271Z,1.71
2022-12-19T15:26:04.587Z,1.69
2022-12-19T15:28:44.002Z,1.79
2022-12-19T15:31:20.059Z,1.81
2022-12-19T15:34:14.321Z,1.77
2022-12-19T15:36:33.099Z,1.73
2022-12-19T15:38:59.611Z,1.86
2022-12-19T15:41:26.130Z,1.93
2022-12-19T15:44:03.656Z,1.83
2022-12-19T15:46:31.423Z,2.00
2022-12-19T15:48:58.012Z,1.97
2022-12-19T15:51:24.494Z,2.08
2022-12-19T15:53:51.027Z,2.15
2022-12-19T15:56:24.965Z,2.09
2022-12-19T15:58:52.464Z,2.22
2022-12-19T16:01:19.214Z,2.22
2022-12-19T16:03:46.108Z,2.23
2022-12-19T16:06:14.007Z,2.02
2022-12-19T16:08:40.673Z,2.08
2022-12-19T16:11:18.530Z,2.17
2022-12-19T16:13:47.587Z,2.05
2022-12-19T16:16:16.020Z,2.25
2022-12-19T16:18:42.887Z,2.31
2022-12-19T16:21:18.581Z,2.17
2022-12-19T16:23:45.110Z,2.32
2022-12-19T16:26:35.312Z,2.37
2022-12-19T16:29:02.255Z,2.34
2022-12-19T16:31:28.825Z,2.45
2022-12-19T16:33:55.372Z,2.39
2022-12-19T16:36:21.894Z,2.35
2022-12-19T16:38:48.477Z,2.40
2022-12-19T16:41:18.817Z,2.43
2022-12-19T16:43:45.737Z,2.31
2022-12-19T16:46:17.566Z,2.41
2022-12-19T16:48:44.672Z,2.48
2022-12-19T16:51:18.072Z,2.59
2022-12-19T16:53:44.729Z,2.57
2022-12-19T16:56:30.382Z,2.53
2022-12-19T16:58:58.512Z,2.59
2022-12-19T17:01:25.295Z,2.59
2022-12-19T17:03:53.745Z,2.62
2022-12-19T17:06:21.121Z,2.61
2022-12-19T17:08:48.149Z,2.58
2022-12-19T17:11:20.377Z,2.69
2022-12-19T17:13:48.987Z,2.68
2022-12-19T17:16:15.573Z,2.70
2022-12-19T17:18:43.087Z,2.61
2022-12-19T17:21:16.043Z,2.60
2022-12-19T17:23:42.944Z,2.73
2022-12-19T17:26:12.699Z,2.70
2022-12-19T17:28:43.898Z,2.72
2022-12-19T17:31:20.893Z,2.66
2022-12-19T17:33:47.502Z,2.77
2022-12-19T17:36:18.407Z,2.78
2022-12-19T17:38:47.797Z,2.73
2022-12-19T17:41:16.224Z,2.72
2022-12-19T17:43:43.468Z,2.67
2022-12-19T17:46:21.037Z,2.82
2022-12-19T17:48:52.403Z,2.90
2022-12-19T17:51:20.882Z,2.99
2022-12-19T17:53:47.411Z,3.05
2022-12-19T17:56:15.933Z,3.04
2022-12-19T17:58:42.793Z,2.75
2022-12-19T18:01:18.585Z,2.80
2022-12-19T18:03:45.420Z,2.87
2022-12-19T18:06:12.602Z,2.81
2022-12-19T18:08:39.188Z,2.99
2022-12-19T18:11:10.294Z,2.96
2022-12-19T18:13:36.693Z,2.78
2022-12-19T18:16:03.827Z,2.96
2022-12-19T18:18:33.668Z,3.05
2022-12-19T18:21:00.986Z,3.10
2022-12-19T18:23:27.750Z,3.04
2022-12-19T18:26:00.841Z,3.15
2022-12-19T18:28:28.533Z,3.05
2022-12-19T18:30:59.729Z,3.12
2022-12-19T18:33:26.477Z,3.23
2022-12-19T18:35:53.151Z,3.20
2022-12-19T18:38:23.935Z,3.32
2022-12-19T18:40:54.419Z,3.30
2022-12-19T18:43:20.963Z,3.30
2022-12-19T18:45:53.732Z,3.35
2022-12-19T18:48:25.536Z,3.40
2022-12-19T18:50:56.514Z,3.41
2022-12-19T18:53:28.499Z,3.48
2022-12-19T18:55:58.751Z,3.35
2022-12-19T18:58:25.334Z,3.37
2022-12-19T19:00:57.423Z,3.43
2022-12-19T19:03:28.396Z,3.43
2022-12-19T19:05:56.033Z,3.33
2022-12-19T19:08:28.339Z,3.50
2022-12-19T19:11:05.084Z,3.44
2022-12-19T19:13:31.574Z,3.41
2022-12-19T19:16:01.554Z,3.40
2022-12-19T19:18:38.746Z,3.39
2022-12-19T19:21:06.106Z,3.45
2022-12-19T19:23:36.156Z,3.56
2022-12-19T19:26:02.823Z,3.51
2022-12-19T19:28:29.349Z,3.55
2022-12-19T19:30:57.221Z,3.60
2022-12-19T19:33:26.914Z,3.54
2022-12-19T19:35:56.714Z,3.43
2022-12-19T19:38:23.990Z,3.57
2022-12-19T19:40:50.869Z,3.66
2022-12-19T19:43:17.378Z,3.67
2022-12-19T19:45:44.080Z,3.61
2022-12-19T19:48:11.122Z,3.60
2022-12-19T19:50:37.665Z,3.65
2022-12-19T19:53:04.161Z,3.74
2022-12-19T19:55:31.335Z,3.62
2022-12-19T19:57:57.865Z,3.64
2022-12-19T20:00:24.457Z,3.81
2022-12-19T20:02:51.253Z,3.67
2022-12-19T20:05:17.960Z,3.72
2022-12-19T20:07:45.003Z,3.58
2022-12-19T20:10:11.925Z,3.44
2022-12-19T20:12:38.407Z,3.47
2022-12-19T20:15:05.237Z,3.58
2022-12-19T20:17:31.732Z,3.70
2022-12-19T20:19:58.336Z,3.54
2022-12-19T20:22:25.215Z,3.47
2022-12-19T20:24:51.756Z,3.43
2022-12-19T20:27:18.414Z,3.47
2022-12-19T20:29:45.028Z,3.63
2022-12-19T20:32:11.541Z,3.71
2022-12-19T20:34:38.082Z,3.55
2022-12-19T20:37:05.732Z,3.51
2022-12-19T20:39:33.770Z,3.57
2022-12-19T20:42:00.623Z,3.55
2022-12-19T20:44:27.342Z,3.55
2022-12-19T20:46:53.998Z,3.42
2022-12-19T20:49:21.482Z,3.45
2022-12-19T20:51:47.970Z,3.69
2022-12-19T20:54:15.772Z,3.61
2022-12-19T20:56:42.583Z,3.68
2022-12-19T20:59:09.858Z,3.63
2022-12-19T21:01:36.569Z,3.53
2022-12-19T21:04:04.054Z,3.60
2022-12-19T21:06:30.691Z,3.53
2022-12-19T21:08:57.443Z,3.65
2022-12-19T21:11:24.798Z,3.64
2022-12-19T21:13:51.354Z,3.56
2022-12-19T21:16:19.564Z,3.28
2022-12-19T21:18:46.987Z,3.45
2022-12-19T21:21:17.676Z,3.48
2022-12-19T21:23:44.857Z,3.52
2022-12-19T21:26:11.391Z,3.51
2022-12-19T21:28:38.127Z,3.53
2022-12-19T21:31:15.045Z,3.48
2022-12-19T21:33:41.837Z,3.57
2022-12-19T21:36:10.119Z,3.42
2022-12-19T21:38:36.761Z,3.50
2022-12-19T21:41:07.104Z,3.50
2022-12-19T21:43:34.471Z,3.37
2022-12-19T21:46:08.891Z,3.32
2022-12-19T21:48:37.355Z,3.33
2022-12-19T21:51:04.038Z,3.32
2022-12-19T21:53:30.536Z,3.37
2022-12-19T21:56:24.216Z,3.30
2022-12-19T21:58:52.626Z,3.42
2022-12-19T22:01:19.762Z,3.29
2022-12-19T22:03:46.490Z,3.26
2022-12-19T22:06:20.963Z,3.31
2022-12-19T22:08:52.141Z,3.37
2022-12-19T22:11:20.882Z,3.34
2022-12-19T22:13:48.570Z,3.56
2022-12-19T22:16:15.155Z,3.57
2022-12-19T22:18:42.030Z,3.62
2022-12-19T22:21:10.854Z,3.45
2022-12-19T22:23:37.490Z,3.51
2022-12-19T22:26:03.918Z,3.61
2022-12-19T22:28:34.825Z,3.48
2022-12-19T22:31:01.736Z,3.45
2022-12-19T22:33:28.314Z,3.65
2022-12-19T22:35:54.919Z,3.54
2022-12-19T22:38:22.003Z,3.48
2022-12-19T22:40:48.532Z,3.54
2022-12-19T22:43:15.046Z,3.51
2022-12-19T22:45:41.601Z,3.43
2022-12-19T22:48:08.250Z,3.44
2022-12-19T22:50:34.869Z,3.45
2022-12-19T22:53:01.377Z,3.60
2022-12-19T22:55:27.891Z,3.57
2022-12-19T22:57:54.950Z,3.63
2022-12-19T23:00:21.737Z,3.52
2022-12-19T23:02:48.386Z,3.55
2022-12-19T23:05:15.140Z,3.60
2022-12-19T23:07:41.637Z,3.50
2022-12-19T23:10:08.733Z,3.61
2022-12-19T23:12:35.255Z,3.48
2022-12-19T23:15:01.811Z,3.64
2022-12-19T23:17:28.554Z,3.68
2022-12-19T23:19:55.055Z,3.68
2022-12-19T23:22:21.634Z,3.60
2022-12-19T23:24:48.226Z,3.71
2022-12-19T23:27:14.815Z,3.61
2022-12-19T23:29:42.444Z,3.60
2022-12-19T23:32:09.040Z,3.59
2022-12-19T23:34:36.584Z,3.72
2022-12-19T23:37:11.902Z,3.67
2022-12-19T23:39:39.106Z,3.66
2022-12-19T23:42:05.647Z,3.58
2022-12-19T23:44:32.376Z,3.71
2022-12-19T23:47:03.016Z,3.71
2022-12-19T23:49:30.225Z,3.77
2022-12-19T23:51:56.876Z,3.58
2022-12-19T23:54:23.423Z,3.63
2022-12-19T23:56:50.005Z,3.68
2022-12-19T23:59:16.575Z,3.56
